»·PEaware :: SWA1587 KBUR-KSFO

SWA1587 :: KBUR-KSFO

FLIGHT INFORMATION

Flight Status: Arrived
Operator:
Southwest Airlines
More flights by this operator :: More flights under this callsign
Pilot: Ben F. (2808)
Aircraft: BOEING 737-300
(B733)
More flights by this aircraft type
Origin: KBUR Bob Hope-Burbank
United States
Destination: KSFO San Francisco Intl
United States
More flights between these airports :: More routes between these airports
Route: OROSZ2 COREZ MAKRS SERFR SERFR3
File this flight plan on PilotEdge
Remarks:
Altitude:
(Current/Filed)
34,000ft
Speed:
(Current/Filed)
438kts
Departed: 17-Apr-18 08:56 AM
Arrived: 17-Apr-18 09:54 AM
Distance/Time
Traveled:
283nm/0:58
Distance/Time
To Go:
Arrived

Flight Plot

Page will automatically refresh every two minutes.

Flight plan parsing failed; only flown route is shown


Map Options




Map Legend


Flown Route
Filed Route
Departure Airport
Arrival Airport
Navaid (VOR, NDB)
Fix

Horizontal Profiles

Position Reports

Time Latitude Longitude Heading Altitude Ground
Speed
17-Apr-18 08:35 34.196773 -118.351977 179 783ft 0kts
17-Apr-18 08:36 34.196773 -118.351977 179 783ft 0kts
17-Apr-18 08:37 34.196773 -118.351977 179 783ft 0kts
17-Apr-18 08:38 34.196773 -118.351977 179 783ft 0kts
17-Apr-18 08:39 34.196773 -118.351977 179 783ft 0kts
17-Apr-18 08:40 34.196773 -118.351977 179 783ft 0kts
17-Apr-18 08:41 34.196773 -118.351977 179 783ft 0kts
17-Apr-18 08:42 34.196773 -118.351977 179 783ft 0kts
17-Apr-18 08:43 34.196773 -118.351977 179 783ft 0kts
17-Apr-18 08:44 34.196773 -118.351977 179 783ft 0kts
17-Apr-18 08:45 34.196773 -118.351977 180 783ft 0kts
17-Apr-18 08:46 34.197148 -118.351859 240 783ft 2kts
17-Apr-18 08:47 34.197180 -118.351639 271 783ft 0kts
17-Apr-18 08:48 34.197180 -118.351647 271 783ft 0kts
17-Apr-18 08:49 34.197189 -118.352895 270 783ft 6kts
17-Apr-18 08:50 34.199356 -118.355531 347 783ft 17kts
17-Apr-18 08:51 34.204810 -118.357031 348 783ft 21kts
17-Apr-18 08:52 34.210323 -118.358568 347 783ft 19kts
17-Apr-18 08:53 34.211686 -118.359222 310 783ft 3kts
17-Apr-18 08:54 34.211327 -118.360200 166 783ft 0kts
17-Apr-18 08:55 34.180663 -118.352588 182 1288ft 199kts
17-Apr-18 08:56 34.135668 -118.393077 249 3438ft 240kts
17-Apr-18 08:57 34.165300 -118.460241 322 6277ft 256kts
17-Apr-18 08:58 34.223004 -118.511886 325 9157ft 262kts
17-Apr-18 08:59 34.284459 -118.565944 324 11536ft 294kts
17-Apr-18 09:00 34.354318 -118.627765 323 13825ft 325kts
17-Apr-18 09:01 34.429655 -118.676282 329 16300ft 335kts
17-Apr-18 09:02 34.511086 -118.733721 327 18706ft 345kts
17-Apr-18 09:03 34.594773 -118.792959 326 20881ft 356kts
17-Apr-18 09:04 34.680689 -118.853934 326 22858ft 366kts
17-Apr-18 09:05 34.769768 -118.917209 325 24623ft 377kts
17-Apr-18 09:06 34.860911 -118.982102 325 26203ft 389kts
17-Apr-18 09:07 34.954356 -119.048801 325 27813ft 395kts
17-Apr-18 09:08 35.047911 -119.116046 325 29829ft 386kts
17-Apr-18 09:09 35.138587 -119.181064 324 31238ft 388kts
17-Apr-18 09:10 35.229579 -119.246437 323 32759ft 382kts
17-Apr-18 09:11 35.320841 -119.312285 323 33897ft 382kts
17-Apr-18 09:12 35.412233 -119.378426 323 34365ft 389kts
17-Apr-18 09:13 35.504920 -119.445634 323 34363ft 387kts
17-Apr-18 09:14 35.566163 -119.540315 280 34368ft 370kts
17-Apr-18 09:15 35.583655 -119.663441 280 34347ft 370kts
17-Apr-18 09:16 35.601958 -119.786943 280 34367ft 369kts
17-Apr-18 09:17 35.620231 -119.910705 280 34351ft 369kts
17-Apr-18 09:18 35.638261 -120.034382 280 34340ft 370kts
17-Apr-18 09:19 35.656264 -120.158396 280 34340ft 370kts
17-Apr-18 09:20 35.674082 -120.282069 280 34340ft 370kts
17-Apr-18 09:21 35.704385 -120.401741 293 34341ft 372kts
17-Apr-18 09:22 35.748734 -120.516343 293 34340ft 371kts
17-Apr-18 09:23 35.792591 -120.631147 293 34339ft 371kts
17-Apr-18 09:24 35.835370 -120.743789 292 34341ft 372kts
17-Apr-18 09:25 35.878876 -120.858567 292 34339ft 371kts
17-Apr-18 09:26 35.922540 -120.974149 292 34339ft 371kts
17-Apr-18 09:27 35.966292 -121.090396 292 34340ft 377kts
17-Apr-18 09:28 36.010469 -121.208200 292 34340ft 381kts
17-Apr-18 09:29 36.054869 -121.327029 292 34345ft 381kts
17-Apr-18 09:30 36.124361 -121.409324 323 34330ft 400kts
17-Apr-18 09:31 36.216980 -121.480345 322 33177ft 396kts
17-Apr-18 09:32 36.310614 -121.553567 323 30000ft 398kts
17-Apr-18 09:33 36.402241 -121.625417 324 27345ft 386kts
17-Apr-18 09:34 36.485980 -121.691724 324 25822ft 364kts
17-Apr-18 09:35 36.567717 -121.756424 325 24983ft 363kts
17-Apr-18 09:36 36.652865 -121.823766 326 22350ft 363kts
17-Apr-18 09:37 36.737443 -121.890266 332 19353ft 355kts
17-Apr-18 09:38 36.830266 -121.919044 346 16472ft 338kts
17-Apr-18 09:39 36.918976 -121.943741 346 15178ft 325kts
17-Apr-18 09:40 37.005557 -121.973927 342 13648ft 321kts
17-Apr-18 09:41 37.088203 -122.006217 342 11181ft 305kts
17-Apr-18 09:42 37.161921 -122.034928 342 9730ft 266kts
17-Apr-18 09:43 37.228495 -122.060950 342 9079ft 263kts
17-Apr-18 09:44 37.296742 -122.087792 342 7706ft 253kts
17-Apr-18 09:45 37.362517 -122.113762 342 6292ft 247kts
17-Apr-18 09:46 37.429285 -122.137305 344 4489ft 254kts
17-Apr-18 09:47 37.490393 -122.158303 345 3558ft 218kts
17-Apr-18 09:48 37.539159 -122.185856 304 3204ft 190kts
17-Apr-18 09:49 37.563080 -122.242493 298 2059ft 164kts
17-Apr-18 09:50 37.582422 -122.288923 299 1270ft 143kts
17-Apr-18 09:51 37.601123 -122.332805 300 515ft 144kts
17-Apr-18 09:52 37.618417 -122.374299 297 20ft 58kts
17-Apr-18 09:53 37.615765 -122.380212 207 20ft 23kts
17-Apr-18 09:54 37.611400 -122.384200 274 20ft 15kts
17-Apr-18 09:55 37.612258 -122.384120 30 20ft 0kts

Navigation Log

Ident Type
Flight plan parsing failed, navigation log unavailable